createdAt,value
2022-11-10T00:01:06.816Z,10.54
2022-11-10T00:03:53.582Z,10.51
2022-11-10T00:06:41.363Z,10.51
2022-11-10T00:09:28.538Z,10.46
2022-11-10T00:12:15.364Z,10.41
2022-11-10T00:15:20.023Z,10.42
2022-11-10T00:18:08.442Z,10.40
2022-11-10T00:20:55.501Z,10.43
2022-11-10T00:23:42.843Z,10.42
2022-11-10T00:26:29.776Z,10.45
2022-11-10T00:29:16.791Z,10.43
2022-11-10T00:32:03.741Z,10.46
2022-11-10T00:34:52.349Z,10.46
2022-11-10T00:37:39.231Z,10.42
2022-11-10T00:40:26.332Z,10.46
2022-11-10T00:43:13.212Z,10.46
2022-11-10T00:46:00.112Z,10.45
2022-11-10T00:48:47.431Z,10.44
2022-11-10T00:51:36.028Z,10.37
2022-11-10T00:54:23.164Z,10.34
2022-11-10T00:57:10.230Z,10.32
2022-11-10T00:59:57.167Z,10.35
2022-11-10T01:02:44.483Z,10.37
2022-11-10T01:05:32.097Z,10.35
2022-11-10T01:08:20.638Z,10.38
2022-11-10T01:11:10.923Z,10.38
2022-11-10T01:13:58.281Z,10.36
2022-11-10T01:16:45.333Z,10.41
2022-11-10T01:19:32.320Z,10.38
2022-11-10T01:22:19.569Z,10.39
2022-11-10T01:25:08.808Z,10.39
2022-11-10T01:27:56.090Z,10.41
2022-11-10T01:30:42.964Z,10.40
2022-11-10T01:33:30.291Z,10.39
2022-11-10T01:36:17.772Z,10.39
2022-11-10T01:39:04.836Z,10.39
2022-11-10T01:41:53.355Z,10.42
2022-11-10T01:44:41.719Z,10.39
2022-11-10T01:47:29.275Z,10.37
2022-11-10T01:50:17.083Z,10.35
2022-11-10T01:53:08.676Z,10.34
2022-11-10T01:55:56.953Z,10.39
2022-11-10T01:58:51.892Z,10.37
2022-11-10T02:01:39.289Z,10.34
2022-11-10T02:04:27.811Z,10.34
2022-11-10T02:07:15.115Z,10.33
2022-11-10T02:10:03.062Z,10.33
2022-11-10T02:12:51.151Z,10.33
2022-11-10T02:15:40.198Z,10.26
2022-11-10T02:18:27.505Z,10.22
2022-11-10T02:21:17.626Z,10.21
2022-11-10T02:24:05.332Z,10.23
2022-11-10T02:26:54.898Z,10.20
2022-11-10T02:29:42.360Z,10.17
2022-11-10T02:32:29.633Z,10.19
2022-11-10T02:35:16.773Z,10.19
2022-11-10T02:38:05.005Z,10.18
2022-11-10T02:40:53.031Z,10.19
2022-11-10T02:43:40.636Z,10.18
2022-11-10T02:46:27.933Z,10.14
2022-11-10T02:49:15.004Z,10.15
2022-11-10T02:52:02.235Z,10.09
2022-11-10T02:54:50.533Z,10.07
2022-11-10T02:57:38.377Z,10.08
2022-11-10T03:00:25.777Z,10.07
2022-11-10T03:03:12.894Z,10.03
2022-11-10T03:06:00.271Z,10.08
2022-11-10T03:08:47.190Z,10.08
2022-11-10T03:11:35.803Z,10.04
2022-11-10T03:14:22.836Z,10.03
2022-11-10T03:17:09.870Z,10.00
2022-11-10T03:19:56.927Z,10.04
2022-11-10T03:22:43.894Z,10.00
2022-11-10T03:25:31.005Z,9.97
2022-11-10T03:28:19.281Z,9.92
2022-11-10T03:31:06.715Z,9.90
2022-11-10T03:33:53.875Z,9.88
2022-11-10T03:36:41.009Z,9.82
2022-11-10T03:39:30.333Z,9.82
2022-11-10T03:42:17.130Z,9.78
2022-11-10T03:45:06.370Z,9.60
2022-11-10T03:47:53.426Z,9.54
2022-11-10T03:50:40.502Z,9.49
2022-11-10T03:53:27.749Z,9.39
2022-11-10T03:56:14.993Z,9.34
2022-11-10T03:59:01.902Z,9.37
2022-11-10T04:01:50.247Z,9.36
2022-11-10T04:04:54.917Z,9.31
2022-11-10T04:07:59.808Z,9.27
2022-11-10T04:10:47.011Z,9.26
2022-11-10T04:13:51.515Z,9.22
2022-11-10T04:16:38.686Z,9.23
2022-11-10T04:19:27.549Z,9.24
2022-11-10T04:22:34.330Z,9.22
2022-11-10T04:25:21.106Z,9.18
2022-11-10T04:28:08.270Z,9.15
2022-11-10T04:30:55.223Z,9.16
2022-11-10T04:33:42.920Z,9.11
2022-11-10T04:36:33.832Z,9.07
2022-11-10T04:39:20.740Z,8.99
2022-11-10T04:42:07.966Z,8.91
2022-11-10T04:44:55.145Z,8.88
2022-11-10T04:47:42.303Z,8.80
2022-11-10T04:50:29.599Z,8.73
2022-11-10T04:53:18.325Z,8.68
2022-11-10T04:56:06.006Z,8.70
2022-11-10T04:58:54.273Z,8.72
2022-11-10T05:01:41.308Z,8.72
2022-11-10T05:04:28.157Z,8.72
2022-11-10T05:07:15.381Z,8.76
2022-11-10T05:10:03.991Z,8.76
2022-11-10T05:12:53.987Z,8.74
2022-11-10T05:15:42.152Z,8.67
2022-11-10T05:18:29.026Z,8.60
2022-11-10T05:21:15.854Z,8.48
2022-11-10T05:24:02.967Z,8.34
2022-11-10T05:26:51.324Z,8.28
2022-11-10T05:29:38.192Z,8.25
2022-11-10T05:32:25.259Z,8.23
2022-11-10T05:35:12.197Z,8.19
2022-11-10T05:37:59.076Z,8.23
2022-11-10T05:40:46.013Z,8.14
2022-11-10T05:43:34.162Z,8.09
2022-11-10T05:46:20.828Z,8.06
2022-11-10T05:49:07.597Z,7.98
2022-11-10T05:51:54.826Z,8.01
2022-11-10T05:54:42.076Z,7.97
2022-11-10T05:57:28.884Z,7.90
2022-11-10T06:00:21.325Z,7.85
2022-11-10T06:03:14.470Z,7.74
2022-11-10T06:06:01.518Z,7.67
2022-11-10T06:08:48.522Z,7.64
2022-11-10T06:11:35.337Z,7.54
2022-11-10T06:14:22.200Z,7.50
2022-11-10T06:17:10.340Z,7.44
2022-11-10T06:19:57.268Z,7.37
2022-11-10T06:22:44.891Z,7.31
2022-11-10T06:25:34.156Z,7.20
2022-11-10T06:28:21.163Z,7.12
2022-11-10T06:31:08.260Z,7.10
2022-11-10T06:33:56.544Z,7.07
2022-11-10T06:36:43.801Z,6.93
2022-11-10T06:39:30.773Z,6.84
2022-11-10T06:42:17.625Z,6.90
2022-11-10T06:45:05.316Z,6.93
2022-11-10T06:48:00.383Z,6.93
2022-11-10T06:50:48.580Z,6.85
2022-11-10T06:53:35.528Z,6.88
2022-11-10T06:56:22.411Z,6.94
2022-11-10T06:59:09.559Z,6.98
2022-11-10T07:01:56.448Z,7.06
2022-11-10T07:04:43.660Z,7.18
2022-11-10T07:07:31.800Z,7.28
2022-11-10T07:10:18.761Z,7.36
2022-11-10T07:13:06.466Z,7.43
2022-11-10T07:15:53.502Z,7.48
2022-11-10T07:18:40.457Z,7.57
2022-11-10T07:21:27.376Z,7.63
2022-11-10T07:24:15.606Z,7.67
2022-11-10T07:27:02.435Z,7.76
2022-11-10T07:29:49.533Z,7.82
2022-11-10T07:32:36.548Z,7.91
2022-11-10T07:35:23.365Z,8.02
2022-11-10T07:38:12.454Z,8.04
2022-11-10T07:41:00.749Z,8.14
2022-11-10T07:43:47.694Z,8.22
2022-11-10T07:46:34.700Z,8.29
2022-11-10T07:49:21.655Z,8.31
2022-11-10T07:52:08.435Z,8.31
2022-11-10T07:54:55.245Z,8.48
2022-11-10T07:57:43.688Z,8.53
2022-11-10T08:00:31.065Z,8.65
2022-11-10T08:03:20.543Z,8.72
2022-11-10T08:06:08.368Z,8.81
2022-11-10T08:08:55.339Z,8.89
2022-11-10T08:11:42.241Z,9.01
2022-11-10T08:14:30.415Z,9.09
2022-11-10T08:17:17.396Z,9.19
2022-11-10T08:20:06.232Z,9.27
2022-11-10T08:22:58.882Z,9.16
2022-11-10T08:25:46.766Z,9.14
2022-11-10T08:28:33.557Z,9.20
2022-11-10T08:31:21.845Z,9.24
2022-11-10T08:34:09.159Z,9.37
2022-11-10T08:36:56.383Z,9.36
2022-11-10T08:39:43.085Z,9.47
2022-11-10T08:42:29.948Z,9.63
2022-11-10T08:45:16.909Z,9.45
2022-11-10T08:48:06.552Z,9.56
2022-11-10T08:50:53.711Z,9.53
2022-11-10T08:53:40.915Z,9.77
2022-11-10T08:56:27.775Z,9.92
2022-11-10T08:59:14.809Z,10.23
2022-11-10T09:02:01.594Z,10.68
2022-11-10T09:04:49.794Z,11.03
2022-11-10T09:07:44.071Z,11.44
2022-11-10T09:10:31.189Z,11.31
2022-11-10T09:13:18.927Z,11.17
2022-11-10T09:16:07.104Z,11.03
2022-11-10T09:18:54.448Z,11.12
2022-11-10T09:21:42.617Z,10.99
2022-11-10T09:24:31.566Z,10.71
2022-11-10T09:27:19.412Z,10.51
2022-11-10T09:30:10.637Z,10.69
2022-11-10T09:33:01.851Z,10.72
2022-11-10T09:35:49.093Z,10.62
2022-11-10T09:38:37.296Z,10.77
2022-11-10T09:41:24.154Z,10.76
2022-11-10T09:44:17.511Z,11.04
2022-11-10T09:47:12.408Z,11.72
2022-11-10T09:50:03.783Z,12.22
2022-11-10T09:52:53.212Z,12.50
2022-11-10T09:55:47.206Z,12.64
2022-11-10T09:58:38.578Z,12.91
2022-11-10T10:01:33.960Z,12.98
2022-11-10T10:04:48.774Z,13.03
2022-11-10T10:07:47.998Z,13.39
2022-11-10T10:10:40.520Z,13.52
2022-11-10T10:13:55.353Z,13.72
2022-11-10T10:16:50.103Z,14.04
2022-11-10T10:19:45.584Z,13.84
2022-11-10T10:22:54.166Z,14.08
2022-11-10T10:25:42.913Z,14.53
2022-11-10T10:28:34.249Z,14.67
2022-11-10T10:31:25.301Z,14.99
2022-11-10T10:34:15.034Z,15.15
2022-11-10T10:37:02.571Z,15.02
2022-11-10T10:39:51.421Z,14.91
2022-11-10T10:42:38.801Z,15.60
2022-11-10T10:45:27.333Z,16.05
2022-11-10T10:48:29.734Z,15.54
2022-11-10T10:51:29.697Z,15.97
2022-11-10T10:54:28.439Z,15.93
2022-11-10T10:57:22.881Z,15.67
2022-11-10T11:00:20.618Z,16.01
2022-11-10T11:03:12.596Z,16.07
2022-11-10T11:06:18.952Z,15.44
2022-11-10T11:09:09.890Z,14.69
2022-11-10T11:12:02.807Z,14.52
2022-11-10T11:14:49.648Z,15.66
2022-11-10T11:17:36.695Z,16.31
2022-11-10T11:20:31.166Z,16.75
2022-11-10T11:23:39.576Z,15.92
2022-11-10T11:26:34.716Z,15.98
2022-11-10T11:29:37.906Z,14.85
2022-11-10T11:33:03.857Z,14.80
2022-11-10T11:35:56.483Z,15.64
2022-11-10T11:38:54.594Z,16.35
2022-11-10T11:41:50.691Z,15.82
2022-11-10T11:44:55.094Z,16.75
2022-11-10T11:47:59.135Z,17.02
2022-11-10T11:50:54.131Z,16.46
2022-11-10T11:53:57.556Z,17.24
2022-11-10T11:56:48.188Z,17.41
2022-11-10T12:00:01.008Z,16.59
2022-11-10T12:03:25.592Z,16.41
2022-11-10T12:06:35.828Z,15.97
2022-11-10T12:09:35.788Z,16.74
2022-11-10T12:12:38.349Z,16.23
2022-11-10T12:15:33.800Z,16.08
2022-11-10T12:18:33.593Z,16.52
2022-11-10T12:21:25.506Z,17.15
2022-11-10T12:24:26.847Z,17.52
2022-11-10T12:27:19.703Z,17.69
2022-11-10T12:30:12.140Z,16.57
2022-11-10T12:33:05.247Z,16.75
2022-11-10T12:35:54.905Z,16.79
2022-11-10T12:38:48.779Z,16.46
2022-11-10T12:41:40.951Z,16.97
2022-11-10T12:44:36.170Z,17.43
2022-11-10T12:47:26.879Z,17.20
2022-11-10T12:50:27.921Z,17.34
2022-11-10T12:53:23.618Z,17.15
2022-11-10T12:56:17.088Z,17.24
2022-11-10T12:59:29.302Z,17.48
2022-11-10T13:02:26.977Z,17.03
2022-11-10T13:05:37.445Z,16.88
2022-11-10T13:08:28.992Z,17.36
2022-11-10T13:11:26.514Z,16.54
2022-11-10T13:14:26.048Z,16.29
2022-11-10T13:17:56.053Z,16.12
2022-11-10T13:20:49.111Z,16.07
2022-11-10T13:24:19.980Z,15.87
2022-11-10T13:27:12.289Z,16.40
2022-11-10T13:30:00.015Z,16.53
2022-11-10T13:32:47.103Z,16.75
2022-11-10T13:35:55.556Z,16.76
2022-11-10T13:38:44.197Z,16.54
2022-11-10T13:41:35.225Z,16.49
2022-11-10T13:44:25.134Z,16.14
2022-11-10T13:47:35.912Z,16.20
2022-11-10T13:50:47.348Z,16.21
2022-11-10T13:53:47.364Z,16.49
2022-11-10T13:56:48.523Z,16.44
2022-11-10T13:59:47.198Z,16.30
2022-11-10T14:02:51.686Z,15.62
2022-11-10T14:06:13.536Z,15.71
2022-11-10T14:09:07.052Z,15.70
2022-11-10T14:12:00.090Z,15.73
2022-11-10T14:14:56.015Z,15.65
2022-11-10T14:17:49.022Z,15.34
2022-11-10T14:20:42.800Z,14.95
2022-11-10T14:23:35.629Z,15.04
2022-11-10T14:26:30.075Z,15.00
2022-11-10T14:29:29.167Z,14.92
2022-11-10T14:32:19.926Z,14.96
2022-11-10T14:35:18.331Z,14.76
2022-11-10T14:38:08.029Z,14.68
2022-11-10T14:40:57.326Z,14.55
2022-11-10T14:43:59.410Z,14.44
2022-11-10T14:46:46.288Z,14.41
2022-11-10T14:49:33.540Z,14.35
2022-11-10T14:52:22.168Z,14.30
2022-11-10T14:55:15.944Z,14.15
2022-11-10T14:58:09.020Z,14.03
2022-11-10T15:00:57.440Z,13.74
2022-11-10T15:03:45.186Z,13.96
2022-11-10T15:06:32.858Z,13.79
2022-11-10T15:09:24.626Z,13.52
2022-11-10T15:12:28.278Z,13.45
2022-11-10T15:15:19.936Z,13.32
2022-11-10T15:18:25.161Z,13.20
2022-11-10T15:21:14.388Z,13.06
2022-11-10T15:24:03.444Z,12.96
2022-11-10T15:26:50.600Z,12.86
2022-11-10T15:29:37.892Z,12.77
2022-11-10T15:32:30.584Z,12.66
2022-11-10T15:35:29.609Z,12.50
2022-11-10T15:38:31.782Z,12.34
2022-11-10T15:41:27.505Z,12.12
2022-11-10T15:44:16.705Z,12.03
2022-11-10T15:47:03.716Z,11.87
2022-11-10T15:49:51.148Z,11.65
2022-11-10T15:52:40.189Z,11.41
2022-11-10T15:55:27.311Z,11.36
2022-11-10T15:58:15.615Z,10.80
2022-11-10T16:01:03.213Z,10.92
2022-11-10T16:03:50.707Z,10.84
2022-11-10T16:06:38.711Z,10.72
2022-11-10T16:09:27.322Z,10.70
2022-11-10T16:12:17.962Z,10.67
2022-11-10T16:15:06.294Z,10.57
2022-11-10T16:17:53.556Z,10.41
2022-11-10T16:20:40.927Z,10.31
2022-11-10T16:23:28.418Z,10.19
2022-11-10T16:26:19.567Z,10.16
2022-11-10T16:29:13.640Z,10.01
2022-11-10T16:32:00.665Z,9.95
2022-11-10T16:34:47.589Z,9.83
2022-11-10T16:37:35.209Z,9.71
2022-11-10T16:40:24.208Z,9.66
2022-11-10T16:43:16.782Z,9.58
2022-11-10T16:46:06.547Z,9.43
2022-11-10T16:48:56.045Z,9.61
2022-11-10T16:51:48.779Z,9.44
2022-11-10T16:54:36.449Z,9.24
2022-11-10T16:57:23.465Z,9.21
2022-11-10T17:00:13.227Z,9.10
2022-11-10T17:03:03.452Z,9.11
2022-11-10T17:05:50.775Z,8.95
2022-11-10T17:08:38.180Z,8.79
2022-11-10T17:11:25.188Z,8.74
2022-11-10T17:14:13.000Z,8.65
2022-11-10T17:17:01.778Z,8.63
2022-11-10T17:19:51.080Z,8.61
2022-11-10T17:22:38.027Z,8.49
2022-11-10T17:25:27.649Z,8.48
2022-11-10T17:28:17.134Z,8.51
2022-11-10T17:31:04.644Z,8.46
2022-11-10T17:33:53.512Z,8.42
2022-11-10T17:36:41.167Z,8.42
2022-11-10T17:39:28.479Z,8.36
2022-11-10T17:42:15.868Z,8.27
2022-11-10T17:45:02.642Z,8.25
2022-11-10T17:47:50.602Z,8.20
2022-11-10T17:50:40.846Z,8.18
2022-11-10T17:53:28.697Z,8.12
2022-11-10T17:56:15.552Z,8.18
2022-11-10T17:59:02.417Z,8.08
2022-11-10T18:01:49.308Z,7.99
2022-11-10T18:04:36.199Z,7.99
2022-11-10T18:07:24.672Z,7.90
2022-11-10T18:10:13.889Z,7.83
2022-11-10T18:13:01.116Z,7.86
2022-11-10T18:15:48.906Z,7.77
2022-11-10T18:18:36.400Z,7.71
2022-11-10T18:21:23.582Z,7.71
2022-11-10T18:24:12.053Z,7.67
2022-11-10T18:26:58.951Z,7.62
2022-11-10T18:29:45.884Z,7.59
2022-11-10T18:32:33.086Z,7.48
2022-11-10T18:35:20.052Z,7.39
2022-11-10T18:38:08.278Z,7.42
2022-11-10T18:41:16.553Z,7.34
2022-11-10T18:44:03.664Z,7.30
2022-11-10T18:46:50.534Z,7.30
2022-11-10T18:49:37.261Z,7.26
2022-11-10T18:52:24.046Z,7.20
2022-11-10T18:55:11.789Z,7.16
2022-11-10T18:57:59.995Z,7.16
2022-11-10T19:00:46.864Z,7.15
2022-11-10T19:03:35.355Z,7.10
2022-11-10T19:06:22.803Z,7.02
2022-11-10T19:09:09.895Z,7.05
2022-11-10T19:11:56.959Z,7.00
2022-11-10T19:14:45.227Z,6.94
2022-11-10T19:17:33.059Z,6.86
2022-11-10T19:20:20.024Z,6.85
2022-11-10T19:23:07.123Z,6.86
2022-11-10T19:26:00.303Z,6.84
2022-11-10T19:28:48.068Z,6.82
2022-11-10T19:31:36.475Z,6.79
2022-11-10T19:34:23.443Z,6.78
2022-11-10T19:37:10.664Z,6.75
2022-11-10T19:39:57.616Z,6.73
2022-11-10T19:42:44.532Z,6.75
2022-11-10T19:45:31.503Z,6.74
2022-11-10T19:48:19.875Z,6.73
2022-11-10T19:51:06.933Z,6.65
2022-11-10T19:53:58.720Z,6.63
2022-11-10T19:56:45.688Z,6.61
2022-11-10T19:59:32.957Z,6.56
2022-11-10T20:02:20.036Z,6.56
2022-11-10T20:05:16.034Z,6.53
2022-11-10T20:08:15.472Z,6.47
2022-11-10T20:11:03.848Z,6.50
2022-11-10T20:13:54.905Z,6.40
2022-11-10T20:16:42.542Z,6.41
2022-11-10T20:19:29.596Z,6.38
2022-11-10T20:22:17.828Z,6.33
2022-11-10T20:25:06.896Z,6.37
2022-11-10T20:27:54.238Z,6.38
2022-11-10T20:30:44.341Z,6.32
2022-11-10T20:33:33.098Z,6.27
2022-11-10T20:36:23.108Z,6.24
2022-11-10T20:39:11.284Z,6.22
2022-11-10T20:41:58.144Z,6.18
2022-11-10T20:44:45.089Z,6.11
2022-11-10T20:47:32.412Z,6.12
2022-11-10T20:50:23.204Z,6.12
2022-11-10T20:53:11.654Z,6.12
2022-11-10T20:56:02.572Z,6.03
2022-11-10T20:58:52.253Z,6.07
2022-11-10T21:01:39.073Z,6.09
2022-11-10T21:04:25.887Z,6.12
2022-11-10T21:07:12.911Z,6.09
2022-11-10T21:09:59.927Z,6.07
2022-11-10T21:12:50.823Z,6.04
2022-11-10T21:15:39.732Z,5.98
2022-11-10T21:18:29.160Z,5.94
2022-11-10T21:21:21.100Z,5.87
2022-11-10T21:24:09.252Z,5.86
2022-11-10T21:26:57.158Z,5.85
2022-11-10T21:29:45.769Z,5.85
2022-11-10T21:32:32.489Z,5.84
2022-11-10T21:35:19.779Z,5.78
2022-11-10T21:38:06.686Z,5.77
2022-11-10T21:40:53.885Z,5.74
2022-11-10T21:43:41.128Z,5.71
2022-11-10T21:46:29.333Z,5.67
2022-11-10T21:49:16.138Z,5.66
2022-11-10T21:52:02.927Z,5.68
2022-11-10T21:54:50.009Z,5.60
2022-11-10T21:57:36.908Z,5.56
2022-11-10T22:00:23.868Z,5.53
2022-11-10T22:03:13.109Z,5.57
2022-11-10T22:06:04.792Z,5.54
2022-11-10T22:08:52.235Z,5.61
2022-11-10T22:11:56.740Z,5.56
2022-11-10T22:15:01.353Z,5.57
2022-11-10T22:18:05.985Z,5.50
2022-11-10T22:20:54.595Z,5.45
2022-11-10T22:23:59.023Z,5.54
2022-11-10T22:26:46.216Z,5.49
2022-11-10T22:29:34.405Z,5.43
2022-11-10T22:32:21.379Z,5.40
2022-11-10T22:35:29.138Z,5.38
2022-11-10T22:38:17.539Z,5.44
2022-11-10T22:41:23.063Z,5.40
2022-11-10T22:44:12.105Z,5.38
2022-11-10T22:46:59.316Z,5.37
2022-11-10T22:49:46.276Z,5.35
2022-11-10T22:52:33.032Z,5.28
2022-11-10T22:55:21.252Z,5.21
2022-11-10T22:58:08.234Z,5.24
2022-11-10T23:00:55.131Z,5.25
2022-11-10T23:03:42.037Z,5.25
2022-11-10T23:06:29.320Z,5.26
2022-11-10T23:09:16.222Z,5.20
2022-11-10T23:12:04.804Z,5.15
2022-11-10T23:14:51.950Z,5.14
2022-11-10T23:17:39.199Z,5.10
2022-11-10T23:20:26.173Z,5.04
2022-11-10T23:23:13.328Z,5.00
2022-11-10T23:26:01.890Z,5.00
2022-11-10T23:28:52.085Z,4.97
2022-11-10T23:31:39.184Z,4.98
2022-11-10T23:34:26.025Z,4.95
2022-11-10T23:37:12.787Z,4.97
2022-11-10T23:39:59.568Z,4.95
2022-11-10T23:42:46.472Z,4.88
2022-11-10T23:46:04.811Z,4.85
2022-11-10T23:48:42.794Z,4.84
2022-11-10T23:51:29.709Z,4.79
2022-11-10T23:54:16.570Z,4.78
2022-11-10T23:57:03.425Z,4.72
2022-11-10T23:59:50.352Z,4.63
